sensor_id;sensor_type;location;lat;lon;timestamp;temperature;humidity
16076;DHT22;8142;48.242;11.644;2022-12-07T00:01:37;4.60;99.90
16076;DHT22;8142;48.242;11.644;2022-12-07T00:04:09;4.50;99.90
16076;DHT22;8142;48.242;11.644;2022-12-07T00:06:36;4.50;99.90
16076;DHT22;8142;48.242;11.644;2022-12-07T00:09:07;4.50;99.90
16076;DHT22;8142;48.242;11.644;2022-12-07T00:11:33;4.50;99.90
16076;DHT22;8142;48.242;11.644;2022-12-07T00:14:01;4.50;99.90
16076;DHT22;8142;48.242;11.644;2022-12-07T00:16:31;4.40;99.90
16076;DHT22;8142;48.242;11.644;2022-12-07T00:18:57;4.40;99.90
16076;DHT22;8142;48.242;11.644;2022-12-07T00:21:28;4.40;99.90
16076;DHT22;8142;48.242;11.644;2022-12-07T00:23:56;4.50;99.90
16076;DHT22;8142;48.242;11.644;2022-12-07T00:26:27;4.40;99.90
16076;DHT22;8142;48.242;11.644;2022-12-07T00:28:55;4.40;99.90
16076;DHT22;8142;48.242;11.644;2022-12-07T00:31:24;4.40;99.90
16076;DHT22;8142;48.242;11.644;2022-12-07T00:33:51;4.40;99.90
16076;DHT22;8142;48.242;11.644;2022-12-07T00:36:22;4.40;99.90
16076;DHT22;8142;48.242;11.644;2022-12-07T00:38:48;4.40;99.90
16076;DHT22;8142;48.242;11.644;2022-12-07T00:41:17;4.40;99.90
16076;DHT22;8142;48.242;11.644;2022-12-07T00:43:44;4.40;99.90
16076;DHT22;8142;48.242;11.644;2022-12-07T00:46:11;4.40;99.90
16076;DHT22;8142;48.242;11.644;2022-12-07T00:48:37;4.40;99.90
16076;DHT22;8142;48.242;11.644;2022-12-07T00:51:03;4.40;99.90
16076;DHT22;8142;48.242;11.644;2022-12-07T00:53:29;4.40;99.90
16076;DHT22;8142;48.242;11.644;2022-12-07T00:55:55;4.40;99.90
16076;DHT22;8142;48.242;11.644;2022-12-07T00:58:22;4.40;99.90
16076;DHT22;8142;48.242;11.644;2022-12-07T01:00:49;4.40;99.90
16076;DHT22;8142;48.242;11.644;2022-12-07T01:03:15;4.40;99.90
16076;DHT22;8142;48.242;11.644;2022-12-07T01:05:50;4.40;99.90
16076;DHT22;8142;48.242;11.644;2022-12-07T01:08:16;4.40;99.90
16076;DHT22;8142;48.242;11.644;2022-12-07T01:10:42;4.40;99.90
16076;DHT22;8142;48.242;11.644;2022-12-07T01:13:08;4.40;99.90
16076;DHT22;8142;48.242;11.644;2022-12-07T01:15:34;4.40;99.90
16076;DHT22;8142;48.242;11.644;2022-12-07T01:18:04;4.40;99.90
16076;DHT22;8142;48.242;11.644;2022-12-07T01:20:30;4.40;99.90
16076;DHT22;8142;48.242;11.644;2022-12-07T01:22:55;4.40;99.90
16076;DHT22;8142;48.242;11.644;2022-12-07T01:25:21;4.40;99.90
16076;DHT22;8142;48.242;11.644;2022-12-07T01:27:47;4.40;99.90
16076;DHT22;8142;48.242;11.644;2022-12-07T01:30:13;4.40;99.90
16076;DHT22;8142;48.242;11.644;2022-12-07T01:32:39;4.40;99.90
16076;DHT22;8142;48.242;11.644;2022-12-07T01:35:05;4.50;99.90
16076;DHT22;8142;48.242;11.644;2022-12-07T01:37:38;4.40;99.90
16076;DHT22;8142;48.242;11.644;2022-12-07T01:40:05;4.50;99.90
16076;DHT22;8142;48.242;11.644;2022-12-07T01:42:32;4.40;99.90
16076;DHT22;8142;48.242;11.644;2022-12-07T01:45:37;4.40;99.90
16076;DHT22;8142;48.242;11.644;2022-12-07T01:48:04;4.40;99.90
16076;DHT22;8142;48.242;11.644;2022-12-07T01:50:31;4.40;99.90
16076;DHT22;8142;48.242;11.644;2022-12-07T01:52:59;4.40;99.90
16076;DHT22;8142;48.242;11.644;2022-12-07T01:55:27;4.40;99.90
16076;DHT22;8142;48.242;11.644;2022-12-07T01:57:54;4.30;99.90
16076;DHT22;8142;48.242;11.644;2022-12-07T02:00:21;4.30;99.90
16076;DHT22;8142;48.242;11.644;2022-12-07T02:03:04;4.30;99.90
16076;DHT22;8142;48.242;11.644;2022-12-07T02:05:32;4.30;99.90
16076;DHT22;8142;48.242;11.644;2022-12-07T02:07:59;4.40;99.90
16076;DHT22;8142;48.242;11.644;2022-12-07T02:10:30;4.40;99.90
16076;DHT22;8142;48.242;11.644;2022-12-07T02:13:03;4.40;99.90
16076;DHT22;8142;48.242;11.644;2022-12-07T02:16:08;4.40;99.90
16076;DHT22;8142;48.242;11.644;2022-12-07T02:21:51;4.40;99.90
16076;DHT22;8142;48.242;11.644;2022-12-07T02:30:14;4.40;99.90
16076;DHT22;8142;48.242;11.644;2022-12-07T02:35:55;4.40;99.90
16076;DHT22;8142;48.242;11.644;2022-12-07T02:38:16;4.40;99.90
16076;DHT22;8142;48.242;11.644;2022-12-07T02:40:57;4.40;99.90
16076;DHT22;8142;48.242;11.644;2022-12-07T02:43:35;4.40;99.90
16076;DHT22;8142;48.242;11.644;2022-12-07T02:46:16;4.40;99.90
16076;DHT22;8142;48.242;11.644;2022-12-07T02:48:43;4.50;99.90
16076;DHT22;8142;48.242;11.644;2022-12-07T02:51:11;4.50;99.90
16076;DHT22;8142;48.242;11.644;2022-12-07T02:53:38;4.50;99.90
16076;DHT22;8142;48.242;11.644;2022-12-07T03:04:33;4.50;99.90
16076;DHT22;8142;48.242;11.644;2022-12-07T03:13:01;4.50;99.90
16076;DHT22;8142;48.242;11.644;2022-12-07T03:18:23;4.60;99.90
16076;DHT22;8142;48.242;11.644;2022-12-07T03:20:53;4.60;99.90
16076;DHT22;8142;48.242;11.644;2022-12-07T03:23:21;4.60;99.90
16076;DHT22;8142;48.242;11.644;2022-12-07T03:25:53;4.60;99.90
16076;DHT22;8142;48.242;11.644;2022-12-07T03:28:22;4.60;99.90
16076;DHT22;8142;48.242;11.644;2022-12-07T03:31:13;4.60;99.90
16076;DHT22;8142;48.242;11.644;2022-12-07T03:37:12;4.60;99.90
16076;DHT22;8142;48.242;11.644;2022-12-07T03:42:33;4.60;99.90
16076;DHT22;8142;48.242;11.644;2022-12-07T03:45:00;4.60;99.90
16076;DHT22;8142;48.242;11.644;2022-12-07T03:47:31;4.60;99.90
16076;DHT22;8142;48.242;11.644;2022-12-07T03:57:50;4.70;99.90
16076;DHT22;8142;48.242;11.644;2022-12-07T04:00:18;4.70;99.90
16076;DHT22;8142;48.242;11.644;2022-12-07T04:02:44;4.60;99.90
16076;DHT22;8142;48.242;11.644;2022-12-07T04:05:11;4.40;99.90
16076;DHT22;8142;48.242;11.644;2022-12-07T04:07:37;4.20;99.90
16076;DHT22;8142;48.242;11.644;2022-12-07T04:10:03;4.00;99.90
16076;DHT22;8142;48.242;11.644;2022-12-07T04:12:29;3.80;99.90
16076;DHT22;8142;48.242;11.644;2022-12-07T04:14:55;3.60;99.90
16076;DHT22;8142;48.242;11.644;2022-12-07T04:17:21;3.50;99.90
16076;DHT22;8142;48.242;11.644;2022-12-07T04:19:47;3.30;99.90
16076;DHT22;8142;48.242;11.644;2022-12-07T04:22:13;3.20;99.90
16076;DHT22;8142;48.242;11.644;2022-12-07T04:24:39;3.10;99.90
16076;DHT22;8142;48.242;11.644;2022-12-07T04:27:04;3.00;99.90
16076;DHT22;8142;48.242;11.644;2022-12-07T04:29:30;3.00;99.90
16076;DHT22;8142;48.242;11.644;2022-12-07T04:31:56;3.00;99.90
16076;DHT22;8142;48.242;11.644;2022-12-07T04:34:22;2.90;99.90
16076;DHT22;8142;48.242;11.644;2022-12-07T04:36:48;2.90;99.90
16076;DHT22;8142;48.242;11.644;2022-12-07T04:39:26;2.90;99.90
16076;DHT22;8142;48.242;11.644;2022-12-07T04:41:53;2.90;99.90
16076;DHT22;8142;48.242;11.644;2022-12-07T04:44:19;2.90;99.90
16076;DHT22;8142;48.242;11.644;2022-12-07T04:46:46;2.90;99.90
16076;DHT22;8142;48.242;11.644;2022-12-07T04:49:12;2.80;99.90
16076;DHT22;8142;48.242;11.644;2022-12-07T04:51:39;2.80;99.90
16076;DHT22;8142;48.242;11.644;2022-12-07T04:54:05;2.80;99.90
16076;DHT22;8142;48.242;11.644;2022-12-07T04:56:31;2.80;99.90
16076;DHT22;8142;48.242;11.644;2022-12-07T04:58:58;2.80;99.90
16076;DHT22;8142;48.242;11.644;2022-12-07T05:01:24;2.80;99.90
16076;DHT22;8142;48.242;11.644;2022-12-07T05:03:50;2.80;99.90
16076;DHT22;8142;48.242;11.644;2022-12-07T05:06:16;2.80;99.90
16076;DHT22;8142;48.242;11.644;2022-12-07T05:08:42;2.80;99.90
16076;DHT22;8142;48.242;11.644;2022-12-07T05:11:09;2.70;99.90
16076;DHT22;8142;48.242;11.644;2022-12-07T05:13:36;2.70;99.90
16076;DHT22;8142;48.242;11.644;2022-12-07T05:16:02;2.70;99.90
16076;DHT22;8142;48.242;11.644;2022-12-07T05:18:28;2.80;99.90
16076;DHT22;8142;48.242;11.644;2022-12-07T05:20:54;2.70;99.90
16076;DHT22;8142;48.242;11.644;2022-12-07T05:23:20;2.70;99.90
16076;DHT22;8142;48.242;11.644;2022-12-07T05:25:46;2.70;99.90
16076;DHT22;8142;48.242;11.644;2022-12-07T05:28:12;2.70;99.90
16076;DHT22;8142;48.242;11.644;2022-12-07T05:30:38;2.80;99.90
16076;DHT22;8142;48.242;11.644;2022-12-07T05:33:04;2.80;99.90
16076;DHT22;8142;48.242;11.644;2022-12-07T05:35:30;2.80;99.90
16076;DHT22;8142;48.242;11.644;2022-12-07T05:37:56;2.80;99.90
16076;DHT22;8142;48.242;11.644;2022-12-07T05:40:23;2.90;99.90
16076;DHT22;8142;48.242;11.644;2022-12-07T05:42:48;2.90;99.90
16076;DHT22;8142;48.242;11.644;2022-12-07T05:45:14;3.10;99.90
16076;DHT22;8142;48.242;11.644;2022-12-07T05:47:40;3.10;99.90
16076;DHT22;8142;48.242;11.644;2022-12-07T05:50:06;3.20;99.90
16076;DHT22;8142;48.242;11.644;2022-12-07T05:52:33;3.30;99.90
16076;DHT22;8142;48.242;11.644;2022-12-07T05:54:59;3.40;99.90
16076;DHT22;8142;48.242;11.644;2022-12-07T05:57:25;3.40;99.90
16076;DHT22;8142;48.242;11.644;2022-12-07T05:59:50;3.50;99.90
16076;DHT22;8142;48.242;11.644;2022-12-07T06:02:16;3.50;99.90
16076;DHT22;8142;48.242;11.644;2022-12-07T06:04:45;3.50;99.90
16076;DHT22;8142;48.242;11.644;2022-12-07T06:07:13;3.60;99.90
16076;DHT22;8142;48.242;11.644;2022-12-07T06:09:40;3.70;99.90
16076;DHT22;8142;48.242;11.644;2022-12-07T06:12:06;3.70;99.90
16076;DHT22;8142;48.242;11.644;2022-12-07T06:14:50;3.80;99.90
16076;DHT22;8142;48.242;11.644;2022-12-07T06:17:17;3.90;99.90
16076;DHT22;8142;48.242;11.644;2022-12-07T06:19:43;3.70;99.90
16076;DHT22;8142;48.242;11.644;2022-12-07T06:22:09;3.90;99.90
16076;DHT22;8142;48.242;11.644;2022-12-07T06:24:38;3.90;99.90
16076;DHT22;8142;48.242;11.644;2022-12-07T06:27:04;4.00;99.90
16076;DHT22;8142;48.242;11.644;2022-12-07T06:29:30;4.00;99.90
16076;DHT22;8142;48.242;11.644;2022-12-07T06:31:56;4.00;99.90
16076;DHT22;8142;48.242;11.644;2022-12-07T06:34:24;4.00;99.90
16076;DHT22;8142;48.242;11.644;2022-12-07T06:36:51;4.10;99.90
16076;DHT22;8142;48.242;11.644;2022-12-07T06:39:20;4.10;99.90
16076;DHT22;8142;48.242;11.644;2022-12-07T06:41:47;4.10;99.90
16076;DHT22;8142;48.242;11.644;2022-12-07T06:44:13;4.10;99.90
16076;DHT22;8142;48.242;11.644;2022-12-07T06:46:39;4.10;99.90
16076;DHT22;8142;48.242;11.644;2022-12-07T06:49:05;4.10;99.90
16076;DHT22;8142;48.242;11.644;2022-12-07T06:51:32;4.10;99.90
16076;DHT22;8142;48.242;11.644;2022-12-07T06:53:58;4.20;99.90
16076;DHT22;8142;48.242;11.644;2022-12-07T06:56:24;4.20;99.90
16076;DHT22;8142;48.242;11.644;2022-12-07T06:58:50;4.20;99.90
16076;DHT22;8142;48.242;11.644;2022-12-07T07:01:18;4.20;99.90
16076;DHT22;8142;48.242;11.644;2022-12-07T07:03:45;4.20;99.90
16076;DHT22;8142;48.242;11.644;2022-12-07T07:06:12;4.20;99.90
16076;DHT22;8142;48.242;11.644;2022-12-07T07:08:39;4.20;99.90
16076;DHT22;8142;48.242;11.644;2022-12-07T07:11:06;4.20;99.90
16076;DHT22;8142;48.242;11.644;2022-12-07T07:13:32;4.20;99.90
16076;DHT22;8142;48.242;11.644;2022-12-07T07:15:58;4.20;99.90
16076;DHT22;8142;48.242;11.644;2022-12-07T07:18:25;4.20;99.90
16076;DHT22;8142;48.242;11.644;2022-12-07T07:20:52;4.20;99.90
16076;DHT22;8142;48.242;11.644;2022-12-07T07:23:18;4.20;99.90
16076;DHT22;8142;48.242;11.644;2022-12-07T07:25:45;4.30;99.90
16076;DHT22;8142;48.242;11.644;2022-12-07T07:28:10;4.30;99.90
16076;DHT22;8142;48.242;11.644;2022-12-07T07:30:36;4.30;99.90
16076;DHT22;8142;48.242;11.644;2022-12-07T07:33:03;4.30;99.90
16076;DHT22;8142;48.242;11.644;2022-12-07T07:35:32;4.30;99.90
16076;DHT22;8142;48.242;11.644;2022-12-07T07:37:58;4.30;99.90
16076;DHT22;8142;48.242;11.644;2022-12-07T07:40:24;4.40;99.90
16076;DHT22;8142;48.242;11.644;2022-12-07T07:42:52;4.40;99.90
16076;DHT22;8142;48.242;11.644;2022-12-07T07:45:19;4.40;99.90
16076;DHT22;8142;48.242;11.644;2022-12-07T07:47:46;4.20;99.90
16076;DHT22;8142;48.242;11.644;2022-12-07T07:50:12;4.10;99.90
16076;DHT22;8142;48.242;11.644;2022-12-07T07:52:38;4.00;99.90
16076;DHT22;8142;48.242;11.644;2022-12-07T07:55:05;3.80;99.90
16076;DHT22;8142;48.242;11.644;2022-12-07T07:57:31;3.70;99.90
16076;DHT22;8142;48.242;11.644;2022-12-07T07:59:57;3.60;99.90
16076;DHT22;8142;48.242;11.644;2022-12-07T08:02:23;3.50;99.90
16076;DHT22;8142;48.242;11.644;2022-12-07T08:04:49;3.50;99.90
16076;DHT22;8142;48.242;11.644;2022-12-07T08:07:15;3.60;99.90
16076;DHT22;8142;48.242;11.644;2022-12-07T08:09:41;3.60;99.90
16076;DHT22;8142;48.242;11.644;2022-12-07T08:12:07;3.60;99.90
16076;DHT22;8142;48.242;11.644;2022-12-07T08:14:34;3.70;99.90
16076;DHT22;8142;48.242;11.644;2022-12-07T08:17:00;3.80;99.90
16076;DHT22;8142;48.242;11.644;2022-12-07T08:19:26;3.80;99.90
16076;DHT22;8142;48.242;11.644;2022-12-07T08:21:52;3.90;99.90
16076;DHT22;8142;48.242;11.644;2022-12-07T08:24:18;3.90;99.90
16076;DHT22;8142;48.242;11.644;2022-12-07T08:26:44;4.10;99.90
16076;DHT22;8142;48.242;11.644;2022-12-07T08:29:10;4.00;99.90
16076;DHT22;8142;48.242;11.644;2022-12-07T08:31:36;4.10;99.90
16076;DHT22;8142;48.242;11.644;2022-12-07T08:34:02;4.20;99.90
16076;DHT22;8142;48.242;11.644;2022-12-07T08:36:28;4.20;99.90
16076;DHT22;8142;48.242;11.644;2022-12-07T08:38:54;4.20;99.90
16076;DHT22;8142;48.242;11.644;2022-12-07T08:41:20;4.20;99.90
16076;DHT22;8142;48.242;11.644;2022-12-07T08:43:46;4.20;99.90
16076;DHT22;8142;48.242;11.644;2022-12-07T08:46:24;4.30;99.90
16076;DHT22;8142;48.242;11.644;2022-12-07T08:48:57;4.30;99.90
16076;DHT22;8142;48.242;11.644;2022-12-07T08:51:24;4.30;99.90
16076;DHT22;8142;48.242;11.644;2022-12-07T08:53:51;4.30;99.90
16076;DHT22;8142;48.242;11.644;2022-12-07T08:56:18;4.40;99.90
16076;DHT22;8142;48.242;11.644;2022-12-07T08:58:45;4.40;99.90
16076;DHT22;8142;48.242;11.644;2022-12-07T09:01:11;4.40;99.90
16076;DHT22;8142;48.242;11.644;2022-12-07T09:03:37;4.50;99.90
16076;DHT22;8142;48.242;11.644;2022-12-07T09:06:03;4.40;99.90
16076;DHT22;8142;48.242;11.644;2022-12-07T09:08:41;4.50;99.90
16076;DHT22;8142;48.242;11.644;2022-12-07T09:11:09;4.50;99.90
16076;DHT22;8142;48.242;11.644;2022-12-07T09:13:35;4.50;99.90
16076;DHT22;8142;48.242;11.644;2022-12-07T09:16:02;4.50;99.90
16076;DHT22;8142;48.242;11.644;2022-12-07T09:18:28;4.60;99.90
16076;DHT22;8142;48.242;11.644;2022-12-07T09:20:54;4.60;99.90
16076;DHT22;8142;48.242;11.644;2022-12-07T09:23:19;4.60;99.90
16076;DHT22;8142;48.242;11.644;2022-12-07T09:25:45;4.60;99.90
16076;DHT22;8142;48.242;11.644;2022-12-07T09:28:11;4.70;99.90
16076;DHT22;8142;48.242;11.644;2022-12-07T09:30:37;4.70;99.90
16076;DHT22;8142;48.242;11.644;2022-12-07T09:33:03;4.70;99.90
16076;DHT22;8142;48.242;11.644;2022-12-07T09:35:29;4.80;99.90
16076;DHT22;8142;48.242;11.644;2022-12-07T09:37:54;4.80;99.90
16076;DHT22;8142;48.242;11.644;2022-12-07T09:40:22;4.80;99.90
16076;DHT22;8142;48.242;11.644;2022-12-07T09:42:52;4.80;99.90
16076;DHT22;8142;48.242;11.644;2022-12-07T09:45:23;4.80;99.90
16076;DHT22;8142;48.242;11.644;2022-12-07T09:47:49;4.90;99.90
16076;DHT22;8142;48.242;11.644;2022-12-07T09:50:24;4.90;99.90
16076;DHT22;8142;48.242;11.644;2022-12-07T09:52:52;4.90;99.90
16076;DHT22;8142;48.242;11.644;2022-12-07T09:55:25;5.00;99.90
16076;DHT22;8142;48.242;11.644;2022-12-07T09:57:52;4.90;99.90
16076;DHT22;8142;48.242;11.644;2022-12-07T10:00:20;5.00;99.90
16076;DHT22;8142;48.242;11.644;2022-12-07T10:02:56;5.00;99.90
16076;DHT22;8142;48.242;11.644;2022-12-07T10:05:30;5.00;99.90
16076;DHT22;8142;48.242;11.644;2022-12-07T10:07:56;5.00;99.90
16076;DHT22;8142;48.242;11.644;2022-12-07T10:10:31;5.10;99.90
16076;DHT22;8142;48.242;11.644;2022-12-07T10:13:05;5.10;99.90
16076;DHT22;8142;48.242;11.644;2022-12-07T10:20:49;5.10;99.90
16076;DHT22;8142;48.242;11.644;2022-12-07T10:23:17;5.10;99.90
16076;DHT22;8142;48.242;11.644;2022-12-07T10:25:44;5.10;99.90
16076;DHT22;8142;48.242;11.644;2022-12-07T10:28:13;5.10;99.90
16076;DHT22;8142;48.242;11.644;2022-12-07T10:30:56;5.20;99.90
16076;DHT22;8142;48.242;11.644;2022-12-07T10:33:36;5.10;99.90
16076;DHT22;8142;48.242;11.644;2022-12-07T10:39:02;5.20;99.90
16076;DHT22;8142;48.242;11.644;2022-12-07T10:41:29;5.20;99.90
16076;DHT22;8142;48.242;11.644;2022-12-07T10:43:57;5.20;99.90
16076;DHT22;8142;48.242;11.644;2022-12-07T10:49:41;5.10;99.90
16076;DHT22;8142;48.242;11.644;2022-12-07T10:52:18;5.10;99.90
16076;DHT22;8142;48.242;11.644;2022-12-07T10:54:52;5.10;99.90
16076;DHT22;8142;48.242;11.644;2022-12-07T11:06:23;5.10;99.90
16076;DHT22;8142;48.242;11.644;2022-12-07T11:12:36;5.00;99.90
16076;DHT22;8142;48.242;11.644;2022-12-07T11:14:49;5.10;99.90
16076;DHT22;8142;48.242;11.644;2022-12-07T11:17:36;5.00;99.90
16076;DHT22;8142;48.242;11.644;2022-12-07T11:20:28;5.20;99.90
16076;DHT22;8142;48.242;11.644;2022-12-07T11:33:38;5.00;99.90
16076;DHT22;8142;48.242;11.644;2022-12-07T11:38:52;5.10;99.90
16076;DHT22;8142;48.242;11.644;2022-12-07T11:41:25;5.10;99.90
16076;DHT22;8142;48.242;11.644;2022-12-07T11:46:25;5.10;99.90
16076;DHT22;8142;48.242;11.644;2022-12-07T11:49:07;5.10;99.90
16076;DHT22;8142;48.242;11.644;2022-12-07T11:51:38;5.00;99.90
16076;DHT22;8142;48.242;11.644;2022-12-07T11:54:17;5.10;99.90
16076;DHT22;8142;48.242;11.644;2022-12-07T11:56:47;5.10;99.90
16076;DHT22;8142;48.242;11.644;2022-12-07T12:01:55;5.10;99.90
16076;DHT22;8142;48.242;11.644;2022-12-07T12:07:15;5.10;99.90
16076;DHT22;8142;48.242;11.644;2022-12-07T12:09:59;5.20;99.90
16076;DHT22;8142;48.242;11.644;2022-12-07T12:12:48;5.20;99.90
16076;DHT22;8142;48.242;11.644;2022-12-07T12:18:12;5.30;99.90
16076;DHT22;8142;48.242;11.644;2022-12-07T12:25:46;5.40;99.90
16076;DHT22;8142;48.242;11.644;2022-12-07T12:31:31;5.40;99.90
16076;DHT22;8142;48.242;11.644;2022-12-07T12:34:00;5.40;99.90
16076;DHT22;8142;48.242;11.644;2022-12-07T12:39:16;5.40;99.90
16076;DHT22;8142;48.242;11.644;2022-12-07T12:55:13;5.50;99.90
16076;DHT22;8142;48.242;11.644;2022-12-07T12:57:40;5.50;99.90
16076;DHT22;8142;48.242;11.644;2022-12-07T13:00:19;5.50;99.90
16076;DHT22;8142;48.242;11.644;2022-12-07T13:02:52;5.50;99.90
16076;DHT22;8142;48.242;11.644;2022-12-07T13:05:27;5.50;99.90
16076;DHT22;8142;48.242;11.644;2022-12-07T13:12:59;5.60;99.90
16076;DHT22;8142;48.242;11.644;2022-12-07T13:15:37;5.60;99.90
16076;DHT22;8142;48.242;11.644;2022-12-07T13:26:19;5.60;99.90
16076;DHT22;8142;48.242;11.644;2022-12-07T13:31:34;5.60;99.90
16076;DHT22;8142;48.242;11.644;2022-12-07T13:34:02;5.60;99.90
16076;DHT22;8142;48.242;11.644;2022-12-07T13:36:31;5.70;99.90
16076;DHT22;8142;48.242;11.644;2022-12-07T13:41:43;5.60;99.90
16076;DHT22;8142;48.242;11.644;2022-12-07T13:44:15;5.70;99.90
16076;DHT22;8142;48.242;11.644;2022-12-07T13:49:37;5.70;99.90
16076;DHT22;8142;48.242;11.644;2022-12-07T13:52:25;5.70;99.90
16076;DHT22;8142;48.242;11.644;2022-12-07T13:55:01;5.70;99.90
16076;DHT22;8142;48.242;11.644;2022-12-07T13:57:29;5.70;99.90
16076;DHT22;8142;48.242;11.644;2022-12-07T13:59:56;5.70;99.90
16076;DHT22;8142;48.242;11.644;2022-12-07T14:02:31;5.70;99.90
16076;DHT22;8142;48.242;11.644;2022-12-07T14:05:12;5.80;99.90
16076;DHT22;8142;48.242;11.644;2022-12-07T14:12:54;5.70;99.90
16076;DHT22;8142;48.242;11.644;2022-12-07T14:15:29;5.70;99.90
16076;DHT22;8142;48.242;11.644;2022-12-07T14:17:57;5.70;99.90
16076;DHT22;8142;48.242;11.644;2022-12-07T14:22:58;5.60;99.90
16076;DHT22;8142;48.242;11.644;2022-12-07T14:25:26;5.60;99.90
16076;DHT22;8142;48.242;11.644;2022-12-07T14:27:57;5.60;99.90
16076;DHT22;8142;48.242;11.644;2022-12-07T14:30:26;5.60;99.90
16076;DHT22;8142;48.242;11.644;2022-12-07T14:33:04;5.60;99.90
16076;DHT22;8142;48.242;11.644;2022-12-07T14:35:31;5.60;99.90
16076;DHT22;8142;48.242;11.644;2022-12-07T14:37:57;5.60;99.90
16076;DHT22;8142;48.242;11.644;2022-12-07T14:40:26;5.60;99.90
16076;DHT22;8142;48.242;11.644;2022-12-07T14:42:57;5.60;99.90
16076;DHT22;8142;48.242;11.644;2022-12-07T14:45:25;5.60;99.90
16076;DHT22;8142;48.242;11.644;2022-12-07T14:47:51;5.60;99.90
16076;DHT22;8142;48.242;11.644;2022-12-07T14:50:18;5.60;99.90
16076;DHT22;8142;48.242;11.644;2022-12-07T14:52:49;5.60;99.90
16076;DHT22;8142;48.242;11.644;2022-12-07T14:55:30;5.50;99.90
16076;DHT22;8142;48.242;11.644;2022-12-07T14:57:57;5.50;99.90
16076;DHT22;8142;48.242;11.644;2022-12-07T15:00:25;5.50;99.90
16076;DHT22;8142;48.242;11.644;2022-12-07T15:02:52;5.50;99.90
16076;DHT22;8142;48.242;11.644;2022-12-07T15:05:18;5.40;99.90
16076;DHT22;8142;48.242;11.644;2022-12-07T15:07:45;5.40;99.90
16076;DHT22;8142;48.242;11.644;2022-12-07T15:10:23;5.40;99.90
16076;DHT22;8142;48.242;11.644;2022-12-07T15:12:49;5.40;99.90
16076;DHT22;8142;48.242;11.644;2022-12-07T15:15:15;5.30;99.90
16076;DHT22;8142;48.242;11.644;2022-12-07T15:17:41;5.30;99.90
16076;DHT22;8142;48.242;11.644;2022-12-07T15:20:12;5.40;99.90
16076;DHT22;8142;48.242;11.644;2022-12-07T15:22:38;5.30;99.90
16076;DHT22;8142;48.242;11.644;2022-12-07T15:25:04;5.30;99.90
16076;DHT22;8142;48.242;11.644;2022-12-07T15:27:31;5.40;99.90
16076;DHT22;8142;48.242;11.644;2022-12-07T15:29:57;5.40;99.90
16076;DHT22;8142;48.242;11.644;2022-12-07T15:32:23;5.40;99.90
16076;DHT22;8142;48.242;11.644;2022-12-07T15:34:49;5.40;99.90
16076;DHT22;8142;48.242;11.644;2022-12-07T15:37:15;5.40;99.90
16076;DHT22;8142;48.242;11.644;2022-12-07T15:39:41;5.40;99.90
16076;DHT22;8142;48.242;11.644;2022-12-07T15:42:07;5.40;99.90
16076;DHT22;8142;48.242;11.644;2022-12-07T15:44:33;5.40;99.90
16076;DHT22;8142;48.242;11.644;2022-12-07T15:47:18;5.40;99.90
16076;DHT22;8142;48.242;11.644;2022-12-07T15:49:44;5.40;99.90
16076;DHT22;8142;48.242;11.644;2022-12-07T15:52:09;5.40;99.90
16076;DHT22;8142;48.242;11.644;2022-12-07T15:54:35;5.40;99.90
16076;DHT22;8142;48.242;11.644;2022-12-07T15:57:01;5.40;99.90
16076;DHT22;8142;48.242;11.644;2022-12-07T15:59:28;5.40;99.90
16076;DHT22;8142;48.242;11.644;2022-12-07T16:01:54;5.40;99.90
16076;DHT22;8142;48.242;11.644;2022-12-07T16:04:20;5.30;99.90
16076;DHT22;8142;48.242;11.644;2022-12-07T16:06:46;5.20;99.90
16076;DHT22;8142;48.242;11.644;2022-12-07T16:09:12;5.10;99.90
16076;DHT22;8142;48.242;11.644;2022-12-07T16:11:38;4.90;99.90
16076;DHT22;8142;48.242;11.644;2022-12-07T16:14:04;4.70;99.90
16076;DHT22;8142;48.242;11.644;2022-12-07T16:16:30;4.60;99.90
16076;DHT22;8142;48.242;11.644;2022-12-07T16:18:57;4.50;99.90
16076;DHT22;8142;48.242;11.644;2022-12-07T16:21:23;4.50;99.90
16076;DHT22;8142;48.242;11.644;2022-12-07T16:23:49;4.30;99.90
16076;DHT22;8142;48.242;11.644;2022-12-07T16:26:17;4.30;99.90
16076;DHT22;8142;48.242;11.644;2022-12-07T16:28:43;4.20;99.90
16076;DHT22;8142;48.242;11.644;2022-12-07T16:31:14;4.10;99.90
16076;DHT22;8142;48.242;11.644;2022-12-07T16:33:42;4.10;99.90
16076;DHT22;8142;48.242;11.644;2022-12-07T16:36:09;4.00;99.90
16076;DHT22;8142;48.242;11.644;2022-12-07T16:38:36;3.80;99.90
16076;DHT22;8142;48.242;11.644;2022-12-07T16:41:04;3.70;99.90
16076;DHT22;8142;48.242;11.644;2022-12-07T16:43:29;3.60;99.90
16076;DHT22;8142;48.242;11.644;2022-12-07T16:45:55;3.60;99.90
16076;DHT22;8142;48.242;11.644;2022-12-07T16:48:21;3.40;99.90
16076;DHT22;8142;48.242;11.644;2022-12-07T16:50:47;3.40;99.90
16076;DHT22;8142;48.242;11.644;2022-12-07T16:53:14;3.30;99.90
16076;DHT22;8142;48.242;11.644;2022-12-07T16:55:43;3.30;99.90
16076;DHT22;8142;48.242;11.644;2022-12-07T16:58:13;3.20;99.90
16076;DHT22;8142;48.242;11.644;2022-12-07T17:00:40;3.20;99.90
16076;DHT22;8142;48.242;11.644;2022-12-07T17:03:06;3.10;99.90
16076;DHT22;8142;48.242;11.644;2022-12-07T17:05:33;3.10;99.90
16076;DHT22;8142;48.242;11.644;2022-12-07T17:07:59;3.10;99.90
16076;DHT22;8142;48.242;11.644;2022-12-07T17:10:26;3.10;99.90
16076;DHT22;8142;48.242;11.644;2022-12-07T17:12:52;3.00;99.90
16076;DHT22;8142;48.242;11.644;2022-12-07T17:15:18;3.00;99.90
16076;DHT22;8142;48.242;11.644;2022-12-07T17:17:57;3.00;99.90
16076;DHT22;8142;48.242;11.644;2022-12-07T17:20:26;3.00;99.90
16076;DHT22;8142;48.242;11.644;2022-12-07T17:22:52;3.00;99.90
16076;DHT22;8142;48.242;11.644;2022-12-07T17:25:18;3.00;99.90
16076;DHT22;8142;48.242;11.644;2022-12-07T17:27:45;3.00;99.90
16076;DHT22;8142;48.242;11.644;2022-12-07T17:30:12;3.00;99.90
16076;DHT22;8142;48.242;11.644;2022-12-07T17:32:38;3.00;99.90
16076;DHT22;8142;48.242;11.644;2022-12-07T17:35:05;3.00;99.90
16076;DHT22;8142;48.242;11.644;2022-12-07T17:37:32;3.00;99.90
16076;DHT22;8142;48.242;11.644;2022-12-07T17:39:58;3.10;99.90
16076;DHT22;8142;48.242;11.644;2022-12-07T17:42:24;3.20;99.90
16076;DHT22;8142;48.242;11.644;2022-12-07T17:45:07;3.30;99.90
16076;DHT22;8142;48.242;11.644;2022-12-07T17:47:35;3.40;99.90
16076;DHT22;8142;48.242;11.644;2022-12-07T17:50:03;3.50;99.90
16076;DHT22;8142;48.242;11.644;2022-12-07T17:52:29;3.60;99.90
16076;DHT22;8142;48.242;11.644;2022-12-07T17:55:14;3.70;99.90
16076;DHT22;8142;48.242;11.644;2022-12-07T17:57:39;3.80;99.90
16076;DHT22;8142;48.242;11.644;2022-12-07T18:00:06;4.00;99.90
16076;DHT22;8142;48.242;11.644;2022-12-07T18:02:33;4.00;99.90
16076;DHT22;8142;48.242;11.644;2022-12-07T18:04:59;4.10;99.90
16076;DHT22;8142;48.242;11.644;2022-12-07T18:07:25;4.10;99.90
16076;DHT22;8142;48.242;11.644;2022-12-07T18:09:51;4.20;99.90
16076;DHT22;8142;48.242;11.644;2022-12-07T18:12:17;4.20;99.90
16076;DHT22;8142;48.242;11.644;2022-12-07T18:14:43;4.30;99.90
16076;DHT22;8142;48.242;11.644;2022-12-07T18:17:09;4.30;99.90
16076;DHT22;8142;48.242;11.644;2022-12-07T18:19:35;4.30;99.90